KHSV/HSV METAR and TAF weather

Enter ICAO airport designator
Station Type Date Time Source
KHSV METAR 2024/04/23 03:53 UTC NOAA

KHSV 230353Z 11004KT 10SM CLR 09/05 A3016 RMK AO2 SLP212 T00890050


Station Type Date Time Source
KHSV Decoded METAR 2024/04/23 03:53 UTC NOAA

HUNTSVILLE INTERNATIONAL JONES FIELD, AL, United States (KHSV) 34-39N 086-47W 191M
Apr 22, 2024 - 11:53 PM EDT / 2024.04.23 0353 UTC
Wind: from the ESE (110 degrees) at 5 MPH (4 KT):0
Visibility: 10 mile(s):0
Sky conditions: clear
Temperature: 48.0 F (8.9 C)
Dew Point: 41.0 F (5.0 C)
Relative Humidity: 76%
Pressure (altimeter): 30.16 in. Hg (1021 hPa)
ob: KHSV 230353Z 11004KT 10SM CLR 09/05 A3016 RMK AO2 SLP212 T00890050
cycle: 4

Station Type Date Time Source
KHSV TAF 2024/04/22 18:30 UTC NOAA